Terminal Aerodrome Forecast
Issued by NWS

Home | Current Version | Previous Version | Text Only | Print | Product List | Glossary On
Versions: 1 2 3 4 5 6 7 8 9 10 11 12 13 14 15 16 17 18 19 20 21 22 23 24 25 26 27 28
000
FTUS41 KALY 281739
TAFPSF
TAF
KPSF 281739Z 2818/2918 32010G17KT 2SM -SN BR SCT015 OVC025
      TEMPO 2818/2821 1SM -SN BR OVC015
     FM282100 31010G17KT 3SM -SHSN SCT015 OVC025
      TEMPO 2821/2824 2SM -SHSN BR OVC015
     FM290200 31009KT P6SM VCSH SCT020 OVC035
     FM290600 31006KT P6SM OVC040
     FM291100 31005KT P6SM SCT045=

USA.gov is the U.S. government's official web portal to all federal, state and local government web resources and services.